Terminal Aerodrome Forecast
Issued by NWS St Louis, MO

Home | Current Version | Previous Version | Text Only | Print | Product List | Glossary On
Versions: 1 2 3 4 5 6 7 8 9 10 11 12 13 14 15 16 17 18 19 20 21 22 23 24
071
FTUS43 KLSX 231456 AAA
TAFSTL
TAF AMD
KSTL 231456Z 2315/2418 20006KT P6SM SCT250
     FM231700 24010KT P6SM BKN250
     FM232300 21004KT P6SM SCT250
     FM241500 19010KT P6SM SCT150 BKN250=

USA.gov is the U.S. government's official web portal to all federal, state and local government web resources and services.